Connect with us

Forex

U.K. Inflation Advances to 2.9 Percent in August

Published

on

U
  • U.K. Inflation Advances to 2.9 Percent in August

The weak U.K. pound continued to pressure consumer prices amid growing Brexit concern.

Consumer prices, which measures inflation rate climbed from 2.6 percent in July to 2.9 percent in August, according to the Office for National Statistics report released on Thursday. This is higher than the 2.8 percent projected by economists.

Also, core inflation advanced more than projected to reach the most since 2011. Indicating increasing squeeze on households income and expected to pressure policy makers to hike interest rates to rein-in prices toward its 2 percent target.

As explained in the forex weekly outlook, an escalating inflation rate will bolster the pound outlook as investors would interpret it as need by the Bank of England to raise rates in order to ease inflation pressures on consumers.

u.k. inflation

Therefore, if consumer prices due on Tuesday shows inflation rises from the current 2.6 percent to the projected 2.8 percent, the Bank of England stance on interest rate hike is likely to change as escalating inflation rate is predicted to force the apex bank to raise rates regardless of the Brexit outcome. If happened, it will boost the Pound temporarily.

While it Monetary Policy Committee is expected to keep interest rate unchanged on Thursday, at least two of the nine members are expected to vote otherwise. This will help price in the likelihood of the apex to raise rates at least once this year.

The surge in consumer prices in the month was attributed to pickup in clothing and footwear prices, which surged by 2.4 percent on monthly basis and 4.5 percent year on year. The highest in almost 3 decades.

Wage growth is projected to rise above 2 percent tomorrow, but below the pace of increase of inflation rate. Meaning employees are still losing in real terms.

The pound surged 0.7 percent against the US dollar to $1.3281 as of 10:00 a.m London time. While rising to a month high against the Euro-single currency to 0.9002. Higher than our 0.9015 targets for EURGBP this week. Target met.

The BOE is due to announce its next monetary policy direction on Thursday.

CEO/Founder Investors King Ltd, a foreign exchange research analyst, contributing author on New York-based Talk Markets and Investing.com, with over a decade experience in the global financial markets.

Naira

Daily Naira Exchange Rates; Monday, March 1, 2021

Published

on

naira

Naira Exchange Rates; Monday, March 1, 2021

Naira exchanged at N482 to a United States Dollar on Monday on the parallel market, while it traded at N480 to a US Dollar at the bureau de change section of the foreign exchange market.

Daily Naira Black Market Exchange Rates

Morning * Midday** Evening *** Final Rates

Date USD GBP EURO YUAN Canadian Australian
NGN BUY/SELL BUY/SELL BUY/SELL BUY/SELL BUY/SELL BUY/SELL
01/03/2021 475/482 662/672 575/583 60/68 385/395 382/300
26/02/2021 475/482 660/672 575/583 60/68 385/395 382/300
25/02/2021 475/480 660/670 572/580 60/68 385/395 282/300
24/02/2021 475/480 655/670 570/580 60/68 385/395 282/300
23/02/2021 475/480 655/665 575/582 60/68 385/395 282/300
22/02/2021 475/480 652/660 575/580 60/68 385/395 282/300
19/02/2021 474/478 648/655 570/577 60/68 385/395 282/300
18/02/2021 472/477 645/655 570/575 60/68 385/395 282/300
17/02/2021 472/478 645/655 570/575 60/68 385/395 282/300
16/02/2021 465/473 645/652 565/570 60/68 385/395 282/300
15/02/2021 465/473 642/652 562/570 60/68 385/395 282/300
12/02/2021 465/473 642/650 562/570 60/68 385/395 282/300
11/02/2021 465/475 640/650 560/570 60/70 385/400 280/300
10/02/2021 472/478 645/652 565/575 60/70 385/400 280/300
09/02/2021 474/480 645/655 567/575 60/70 385/400 280/300
08/02/2021 474/480 645/655 567/575 60/70 385/400 280/300
05/02/2021 474/480 645/653 567/578 60/70 385/400 280/300
04/02/2021 474/480 645/653 567/578 60/70 385/400 280/300
03/02/2021 474/480 642/655 575/580 60/70 385/400 280/300
02/02/2021 474/480 642/655 575/580 60/70 385/400 280/300
01/02/2021 474/480 642/655 575/580 60/70 385/400 280/300
29/01/2021 474/480 642/652 575/580 60/70 385/400 280/300

 Bureau De Change Naira Rates

Date USD GBP EURO
NGN BUY/SELL BUY/SELL BUY/SELL
01/03/2021 470/480 660/669 574/580
26/02/2021 470/480 660/669 574/580
25/02/2021 470/480 658/665 574/580
24/02/2021 470/478 654/660 570/578
23/02/2021 470/478 654/660 570/578
22/02/2021 470/477 650/656 570/577
19/02/2021 465/476 645/656 565/573
18/02/2021 465/475 640/652 563/570
17/02/2021 465/477 640/655 562/572
16/02/2021 460/475 640/652 562/570
15/02/2021 460/475 638/652 561/568
12/02/2021 467/475 635/650 562/570
11/02/2021 465/475 640/655 560/575
10/02/2021 472/478 640/655 565/575
09/02/2021 472/478 640/655 565/575
08/02/2021 472/478 640/655 565/575
05/02/2021 472/478 640/650 565/575
04/02/2021 472/478 640/650 565/575
03/02/2021 471/478 640/650 572/580
02/02/2021 471/478 640/655 572/580
01/02/2021 471/478 640/655 572/580
29/01/2021 471/477 640/648 570/579

Central Bank of Nigeria’s Official Naira Rates

Date Currency Buying(NGN) Central(NGN) Selling(NGN)
2/26/2021 US DOLLAR 379 379.5 380
2/26/2021 POUNDS STERLING 527.7196 528.4158 529.112
2/26/2021 EURO 459.0448 459.6504 460.256
2/26/2021 SWISS FRANC 418.3685 418.9204 419.4723
2/26/2021 YEN 3.5644 3.5691 3.5738
2/26/2021 CFA 0.6873 0.6973 0.7073
2/26/2021 WAUA 547.559 548.2813 549.0037
2/26/2021 YUAN/RENMINBI 58.6007 58.6785 58.7562
2/26/2021 RIYAL 101.0505 101.1838 101.3171
2/26/2021 SOUTH AFRICAN RAND 25.2827 25.316 25.3494

 

Continue Reading

Naira

Daily Naira Exchange Rates; Thursday, February 25, 2021

Published

on

lending

Daily Naira Exchange Rates; Thursday, February 25, 2021

The Nigerian Naira traded at N480 to a United States Dollar in the early hours of Thursday, February 24, 2020 at the parallel market popularly known as the black market. While the British pound was exchanged at N672 and Euro sold for N583. See the details below.

Daily Naira Black Market Exchange Rates

Morning * Midday** Evening *** Final Rates

Date USD GBP EURO YUAN Canadian Australian
NGN BUY/SELL BUY/SELL BUY/SELL BUY/SELL BUY/SELL BUY/SELL
25/02/2021 475/480 662/672 575/583 60/68 385/395 282/300
24/02/2021 475/480 655/670 570/580 60/68 385/395 282/300
23/02/2021 475/480 655/665 575/582 60/68 385/395 282/300
22/02/2021 475/480 652/660 575/580 60/68 385/395 282/300
19/02/2021 474/478 648/655 570/577 60/68 385/395 282/300
18/02/2021 472/477 645/655 570/575 60/68 385/395 282/300
17/02/2021 472/478 645/655 570/575 60/68 385/395 282/300
16/02/2021 465/473 645/652 565/570 60/68 385/395 282/300
15/02/2021 465/473 642/652 562/570 60/68 385/395 282/300
12/02/2021 465/473 642/650 562/570 60/68 385/395 282/300
11/02/2021 465/475 640/650 560/570 60/70 385/400 280/300
10/02/2021 472/478 645/652 565/575 60/70 385/400 280/300
09/02/2021 474/480 645/655 567/575 60/70 385/400 280/300
08/02/2021 474/480 645/655 567/575 60/70 385/400 280/300
05/02/2021 474/480 645/653 567/578 60/70 385/400 280/300
04/02/2021 474/480 645/653 567/578 60/70 385/400 280/300
03/02/2021 474/480 642/655 575/580 60/70 385/400 280/300
02/02/2021 474/480 642/655 575/580 60/70 385/400 280/300
01/02/2021 474/480 642/655 575/580 60/70 385/400 280/300
29/01/2021 474/480 642/652 575/580 60/70 385/400 280/300

 Bureau De Change Naira Rates

Date USD GBP EURO
NGN BUY/SELL BUY/SELL BUY/SELL
25/02/2021 470/480 658/665 574/580
24/02/2021 470/480 654/660 570/578
23/02/2021 470/478 654/660 570/578
22/02/2021 470/477 650/656 570/577
19/02/2021 465/476 645/656 565/573
18/02/2021 465/475 640/652 563/570
17/02/2021 465/477 640/655 562/572
16/02/2021 460/475 640/652 562/570
15/02/2021 460/475 638/652 561/568
12/02/2021 467/475 635/650 562/570
11/02/2021 465/475 640/655 560/575
10/02/2021 472/478 640/655 565/575
09/02/2021 472/478 640/655 565/575
08/02/2021 472/478 640/655 565/575
05/02/2021 472/478 640/650 565/575
04/02/2021 472/478 640/650 565/575
03/02/2021 471/478 640/650 572/580
02/02/2021 471/478 640/655 572/580
01/02/2021 471/478 640/655 572/580
29/01/2021 471/477 640/648 570/579

Central Bank of Nigeria’s Official Naira Rates

Date Currency Buying(NGN) Central(NGN) Selling(NGN)
2/24/2021 US DOLLAR 379 379.5 380
2/24/2021 POUNDS STERLING 535.7923 536.4992 537.206
2/24/2021 EURO 461.0914 461.6997 462.308
2/24/2021 SWISS FRANC 417.6309 418.1818 418.7328
2/24/2021 YEN 3.5805 3.5853 3.59
2/24/2021 CFA 0.6825 0.6925 0.7025
2/24/2021 WAUA 546.5445 547.2656 547.9866
2/24/2021 YUAN/RENMINBI 58.7606 58.8386 58.9166
2/24/2021 RIYAL 101.0505 101.1838 101.3171
2/24/2021 SOUTH AFRICAN RAND 26.0338 26.0681 26.1025

 

Continue Reading

Naira

Daily Naira Exchange Rates; Wednesday, February 24, 2021

Published

on

Daily Naira Exchange Rates; Wednesday, February 24, 2021

Naira remained weak against global counterparts as the local currency opened at N480 against the United States Dollar on the black market in the early morning of Wednesday,  February 24, 2020.

Daily Naira Black Market Exchange Rates

Morning * Midday** Evening *** Final Rates

Date USD GBP EURO YUAN Canadian Australian
NGN BUY/SELL BUY/SELL BUY/SELL BUY/SELL BUY/SELL BUY/SELL
24/02/2021 475/480 655/670 570/580 60/68 385/395 282/300
23/02/2021 475/480 655/665 575/582 60/68 385/395 282/300
22/02/2021 475/480 652/660 575/580 60/68 385/395 282/300
19/02/2021 474/478 648/655 570/577 60/68 385/395 282/300
18/02/2021 472/477 645/655 570/575 60/68 385/395 282/300
17/02/2021 472/478 645/655 570/575 60/68 385/395 282/300
16/02/2021 465/473 645/652 565/570 60/68 385/395 282/300
15/02/2021 465/473 642/652 562/570 60/68 385/395 282/300
12/02/2021 465/473 642/650 562/570 60/68 385/395 282/300
11/02/2021 465/475 640/650 560/570 60/70 385/400 280/300
10/02/2021 472/478 645/652 565/575 60/70 385/400 280/300
09/02/2021 474/480 645/655 567/575 60/70 385/400 280/300
08/02/2021 474/480 645/655 567/575 60/70 385/400 280/300
05/02/2021 474/480 645/653 567/578 60/70 385/400 280/300
04/02/2021 474/480 645/653 567/578 60/70 385/400 280/300
03/02/2021 474/480 642/655 575/580 60/70 385/400 280/300
02/02/2021 474/480 642/655 575/580 60/70 385/400 280/300
01/02/2021 474/480 642/655 575/580 60/70 385/400 280/300
29/01/2021 474/480 642/652 575/580 60/70 385/400 280/300

 Bureau De Change Naira Rates

Date USD GBP EURO
NGN BUY/SELL BUY/SELL BUY/SELL
24/02/2021 470/480 654/660 570/578
23/02/2021 470/478 654/660 570/578
22/02/2021 470/477 650/656 570/577
19/02/2021 465/476 645/656 565/573
18/02/2021 465/475 640/652 563/570
17/02/2021 465/477 640/655 562/572
16/02/2021 460/475 640/652 562/570
15/02/2021 460/475 638/652 561/568
12/02/2021 467/475 635/650 562/570
11/02/2021 465/475 640/655 560/575
10/02/2021 472/478 640/655 565/575
09/02/2021 472/478 640/655 565/575
08/02/2021 472/478 640/655 565/575
05/02/2021 472/478 640/650 565/575
04/02/2021 472/478 640/650 565/575
03/02/2021 471/478 640/650 572/580
02/02/2021 471/478 640/655 572/580
01/02/2021 471/478 640/655 572/580
29/01/2021 471/477 640/648 570/579

Central Bank of Nigeria’s Official Naira Rates

 

Continue Reading

Trending